sensor_id;sensor_type;location;lat;lon;timestamp;P1;durP1;ratioP1;P2;durP2;ratioP2
9657;SDS011;4867;48.112;11.622;2023-04-01T00:01:49;4.13;;;1.40;;
9657;SDS011;4867;48.112;11.622;2023-04-01T00:04:16;1.73;;;1.13;;
9657;SDS011;4867;48.112;11.622;2023-04-01T00:06:44;3.33;;;1.80;;
9657;SDS011;4867;48.112;11.622;2023-04-01T00:09:11;1.37;;;0.90;;
9657;SDS011;4867;48.112;11.622;2023-04-01T00:11:39;2.50;;;1.00;;
9657;SDS011;4867;48.112;11.622;2023-04-01T00:14:07;2.10;;;1.30;;
9657;SDS011;4867;48.112;11.622;2023-04-01T00:16:34;1.90;;;1.10;;
9657;SDS011;4867;48.112;11.622;2023-04-01T00:19:02;1.37;;;1.03;;
9657;SDS011;4867;48.112;11.622;2023-04-01T00:21:30;2.57;;;1.33;;
9657;SDS011;4867;48.112;11.622;2023-04-01T00:23:57;2.20;;;1.47;;
9657;SDS011;4867;48.112;11.622;2023-04-01T00:26:25;1.87;;;1.40;;
9657;SDS011;4867;48.112;11.622;2023-04-01T00:28:53;1.80;;;1.00;;
9657;SDS011;4867;48.112;11.622;2023-04-01T00:31:20;2.80;;;1.20;;
9657;SDS011;4867;48.112;11.622;2023-04-01T00:33:47;2.30;;;1.00;;
9657;SDS011;4867;48.112;11.622;2023-04-01T00:36:16;1.93;;;1.10;;
9657;SDS011;4867;48.112;11.622;2023-04-01T00:38:45;2.73;;;1.50;;
9657;SDS011;4867;48.112;11.622;2023-04-01T00:41:13;2.53;;;1.30;;
9657;SDS011;4867;48.112;11.622;2023-04-01T00:43:43;2.70;;;1.33;;
9657;SDS011;4867;48.112;11.622;2023-04-01T00:46:12;3.43;;;1.30;;
9657;SDS011;4867;48.112;11.622;2023-04-01T00:48:41;2.80;;;0.97;;
9657;SDS011;4867;48.112;11.622;2023-04-01T00:51:23;2.80;;;1.50;;
9657;SDS011;4867;48.112;11.622;2023-04-01T00:53:55;2.77;;;1.57;;
9657;SDS011;4867;48.112;11.622;2023-04-01T00:56:25;2.87;;;1.37;;
9657;SDS011;4867;48.112;11.622;2023-04-01T00:58:58;2.90;;;1.20;;
9657;SDS011;4867;48.112;11.622;2023-04-01T01:01:29;1.77;;;1.30;;
9657;SDS011;4867;48.112;11.622;2023-04-01T01:03:57;3.03;;;1.40;;
9657;SDS011;4867;48.112;11.622;2023-04-01T01:06:30;1.87;;;1.13;;
9657;SDS011;4867;48.112;11.622;2023-04-01T01:12:35;3.47;;;1.43;;
9657;SDS011;4867;48.112;11.622;2023-04-01T01:26:46;2.10;;;1.40;;
9657;SDS011;4867;48.112;11.622;2023-04-01T01:37:36;4.50;;;1.60;;
9657;SDS011;4867;48.112;11.622;2023-04-01T01:40:08;2.97;;;1.40;;
9657;SDS011;4867;48.112;11.622;2023-04-01T01:42:44;2.00;;;1.27;;
9657;SDS011;4867;48.112;11.622;2023-04-01T01:45:15;2.60;;;1.40;;
9657;SDS011;4867;48.112;11.622;2023-04-01T01:47:48;2.83;;;1.17;;
9657;SDS011;4867;48.112;11.622;2023-04-01T01:50:16;2.47;;;1.30;;
9657;SDS011;4867;48.112;11.622;2023-04-01T01:52:45;2.93;;;1.30;;
9657;SDS011;4867;48.112;11.622;2023-04-01T01:55:23;3.77;;;1.30;;
9657;SDS011;4867;48.112;11.622;2023-04-01T01:57:58;2.63;;;1.50;;
9657;SDS011;4867;48.112;11.622;2023-04-01T02:00:29;2.10;;;1.30;;
9657;SDS011;4867;48.112;11.622;2023-04-01T02:02:58;2.63;;;1.10;;
9657;SDS011;4867;48.112;11.622;2023-04-01T02:05:27;2.23;;;1.30;;
9657;SDS011;4867;48.112;11.622;2023-04-01T02:08:06;3.23;;;1.27;;
9657;SDS011;4867;48.112;11.622;2023-04-01T02:10:42;2.60;;;1.30;;
9657;SDS011;4867;48.112;11.622;2023-04-01T02:13:19;1.67;;;1.10;;
9657;SDS011;4867;48.112;11.622;2023-04-01T02:15:52;2.13;;;1.30;;
9657;SDS011;4867;48.112;11.622;2023-04-01T02:18:24;2.70;;;1.10;;
9657;SDS011;4867;48.112;11.622;2023-04-01T02:20:52;2.63;;;1.17;;
9657;SDS011;4867;48.112;11.622;2023-04-01T02:23:19;1.60;;;1.00;;
9657;SDS011;4867;48.112;11.622;2023-04-01T02:25:47;2.63;;;1.07;;
9657;SDS011;4867;48.112;11.622;2023-04-01T02:28:16;2.03;;;1.30;;
9657;SDS011;4867;48.112;11.622;2023-04-01T02:30:47;2.63;;;1.40;;
9657;SDS011;4867;48.112;11.622;2023-04-01T02:33:16;1.10;;;1.10;;
9657;SDS011;4867;48.112;11.622;2023-04-01T02:35:45;1.83;;;1.07;;
9657;SDS011;4867;48.112;11.622;2023-04-01T02:38:12;1.33;;;0.90;;
9657;SDS011;4867;48.112;11.622;2023-04-01T02:40:47;1.80;;;0.90;;
9657;SDS011;4867;48.112;11.622;2023-04-01T02:43:16;1.10;;;0.87;;
9657;SDS011;4867;48.112;11.622;2023-04-01T02:45:45;1.30;;;1.00;;
9657;SDS011;4867;48.112;11.622;2023-04-01T02:48:12;2.20;;;0.70;;
9657;SDS011;4867;48.112;11.622;2023-04-01T02:50:40;1.10;;;0.93;;
9657;SDS011;4867;48.112;11.622;2023-04-01T02:53:08;1.70;;;1.10;;
9657;SDS011;4867;48.112;11.622;2023-04-01T02:55:35;2.37;;;1.20;;
9657;SDS011;4867;48.112;11.622;2023-04-01T02:58:02;2.97;;;1.00;;
9657;SDS011;4867;48.112;11.622;2023-04-01T03:00:30;0.60;;;0.60;;
9657;SDS011;4867;48.112;11.622;2023-04-01T03:02:57;1.83;;;0.97;;
9657;SDS011;4867;48.112;11.622;2023-04-01T03:05:25;0.70;;;0.70;;
9657;SDS011;4867;48.112;11.622;2023-04-01T03:07:52;1.00;;;0.77;;
9657;SDS011;4867;48.112;11.622;2023-04-01T03:10:19;0.93;;;0.90;;
9657;SDS011;4867;48.112;11.622;2023-04-01T03:12:47;0.70;;;0.70;;
9657;SDS011;4867;48.112;11.622;2023-04-01T03:15:14;0.70;;;0.70;;
9657;SDS011;4867;48.112;11.622;2023-04-01T03:17:41;0.77;;;0.77;;
9657;SDS011;4867;48.112;11.622;2023-04-01T03:20:10;1.67;;;0.90;;
9657;SDS011;4867;48.112;11.622;2023-04-01T03:22:38;0.70;;;0.60;;
9657;SDS011;4867;48.112;11.622;2023-04-01T03:25:08;0.93;;;0.90;;
9657;SDS011;4867;48.112;11.622;2023-04-01T03:27:38;0.77;;;0.70;;
9657;SDS011;4867;48.112;11.622;2023-04-01T03:30:06;1.23;;;0.80;;
9657;SDS011;4867;48.112;11.622;2023-04-01T03:32:41;1.30;;;0.70;;
9657;SDS011;4867;48.112;11.622;2023-04-01T03:35:08;0.77;;;0.77;;
9657;SDS011;4867;48.112;11.622;2023-04-01T03:37:37;1.07;;;0.90;;
9657;SDS011;4867;48.112;11.622;2023-04-01T03:40:04;1.00;;;0.70;;
9657;SDS011;4867;48.112;11.622;2023-04-01T03:42:32;0.63;;;0.60;;
9657;SDS011;4867;48.112;11.622;2023-04-01T03:45:00;2.47;;;1.20;;
9657;SDS011;4867;48.112;11.622;2023-04-01T03:47:27;1.53;;;1.00;;
9657;SDS011;4867;48.112;11.622;2023-04-01T03:49:55;1.17;;;0.63;;
9657;SDS011;4867;48.112;11.622;2023-04-01T03:52:23;1.53;;;0.90;;
9657;SDS011;4867;48.112;11.622;2023-04-01T03:54:50;1.43;;;0.80;;
9657;SDS011;4867;48.112;11.622;2023-04-01T03:57:17;0.90;;;0.70;;
9657;SDS011;4867;48.112;11.622;2023-04-01T03:59:45;1.60;;;0.93;;
9657;SDS011;4867;48.112;11.622;2023-04-01T04:02:12;1.10;;;1.00;;
9657;SDS011;4867;48.112;11.622;2023-04-01T04:04:40;0.70;;;0.70;;
9657;SDS011;4867;48.112;11.622;2023-04-01T04:07:08;1.60;;;1.00;;
9657;SDS011;4867;48.112;11.622;2023-04-01T04:09:59;0.93;;;0.80;;
9657;SDS011;4867;48.112;11.622;2023-04-01T04:12:26;1.00;;;0.60;;
9657;SDS011;4867;48.112;11.622;2023-04-01T04:14:54;1.10;;;0.80;;
9657;SDS011;4867;48.112;11.622;2023-04-01T04:17:22;0.97;;;0.73;;
9657;SDS011;4867;48.112;11.622;2023-04-01T04:19:49;0.93;;;0.80;;
9657;SDS011;4867;48.112;11.622;2023-04-01T04:22:17;2.07;;;1.00;;
9657;SDS011;4867;48.112;11.622;2023-04-01T04:24:44;1.40;;;0.80;;
9657;SDS011;4867;48.112;11.622;2023-04-01T04:27:12;1.20;;;0.90;;
9657;SDS011;4867;48.112;11.622;2023-04-01T04:30:06;1.30;;;0.80;;
9657;SDS011;4867;48.112;11.622;2023-04-01T04:32:35;0.83;;;0.70;;
9657;SDS011;4867;48.112;11.622;2023-04-01T04:35:03;1.10;;;1.00;;
9657;SDS011;4867;48.112;11.622;2023-04-01T04:37:33;1.30;;;0.70;;
9657;SDS011;4867;48.112;11.622;2023-04-01T04:40:01;1.27;;;1.00;;
9657;SDS011;4867;48.112;11.622;2023-04-01T04:42:29;0.63;;;0.63;;
9657;SDS011;4867;48.112;11.622;2023-04-01T04:45:02;2.00;;;0.90;;
9657;SDS011;4867;48.112;11.622;2023-04-01T04:47:30;1.10;;;0.80;;
9657;SDS011;4867;48.112;11.622;2023-04-01T04:49:58;1.20;;;1.00;;
9657;SDS011;4867;48.112;11.622;2023-04-01T04:52:25;1.10;;;1.00;;
9657;SDS011;4867;48.112;11.622;2023-04-01T04:54:52;1.33;;;0.90;;
9657;SDS011;4867;48.112;11.622;2023-04-01T04:57:19;1.30;;;0.83;;
9657;SDS011;4867;48.112;11.622;2023-04-01T04:59:53;1.13;;;0.90;;
9657;SDS011;4867;48.112;11.622;2023-04-01T05:02:40;1.23;;;0.83;;
9657;SDS011;4867;48.112;11.622;2023-04-01T05:05:08;1.30;;;0.80;;
9657;SDS011;4867;48.112;11.622;2023-04-01T05:07:35;1.57;;;1.03;;
9657;SDS011;4867;48.112;11.622;2023-04-01T05:10:03;2.70;;;1.33;;
9657;SDS011;4867;48.112;11.622;2023-04-01T05:12:31;2.00;;;1.20;;
9657;SDS011;4867;48.112;11.622;2023-04-01T05:15:04;1.50;;;0.90;;
9657;SDS011;4867;48.112;11.622;2023-04-01T05:17:32;1.20;;;0.90;;
9657;SDS011;4867;48.112;11.622;2023-04-01T05:19:59;1.10;;;0.80;;
9657;SDS011;4867;48.112;11.622;2023-04-01T05:22:28;2.50;;;1.10;;
9657;SDS011;4867;48.112;11.622;2023-04-01T05:24:56;0.97;;;0.90;;
9657;SDS011;4867;48.112;11.622;2023-04-01T05:27:23;2.07;;;1.00;;
9657;SDS011;4867;48.112;11.622;2023-04-01T05:29:50;1.97;;;1.00;;
9657;SDS011;4867;48.112;11.622;2023-04-01T05:32:44;3.03;;;0.90;;
9657;SDS011;4867;48.112;11.622;2023-04-01T05:35:12;1.90;;;1.20;;
9657;SDS011;4867;48.112;11.622;2023-04-01T05:37:39;1.03;;;0.90;;
9657;SDS011;4867;48.112;11.622;2023-04-01T05:40:06;1.23;;;1.10;;
9657;SDS011;4867;48.112;11.622;2023-04-01T05:42:34;1.30;;;1.00;;
9657;SDS011;4867;48.112;11.622;2023-04-01T05:45:04;1.93;;;0.90;;
9657;SDS011;4867;48.112;11.622;2023-04-01T05:48:01;4.00;;;1.20;;
9657;SDS011;4867;48.112;11.622;2023-04-01T05:50:32;2.03;;;1.03;;
9657;SDS011;4867;48.112;11.622;2023-04-01T05:53:00;1.87;;;1.27;;
9657;SDS011;4867;48.112;11.622;2023-04-01T05:55:28;2.13;;;1.00;;
9657;SDS011;4867;48.112;11.622;2023-04-01T05:57:55;1.73;;;1.30;;
9657;SDS011;4867;48.112;11.622;2023-04-01T06:00:22;1.33;;;0.87;;
9657;SDS011;4867;48.112;11.622;2023-04-01T06:02:50;1.90;;;1.13;;
9657;SDS011;4867;48.112;11.622;2023-04-01T06:05:20;2.13;;;1.00;;
9657;SDS011;4867;48.112;11.622;2023-04-01T06:07:50;1.80;;;1.20;;
9657;SDS011;4867;48.112;11.622;2023-04-01T06:10:30;3.60;;;1.47;;
9657;SDS011;4867;48.112;11.622;2023-04-01T06:26:39;2.10;;;1.23;;
9657;SDS011;4867;48.112;11.622;2023-04-01T06:29:36;2.20;;;1.00;;
9657;SDS011;4867;48.112;11.622;2023-04-01T06:34:52;3.37;;;1.17;;
9657;SDS011;4867;48.112;11.622;2023-04-01T06:43:25;2.80;;;1.10;;
9657;SDS011;4867;48.112;11.622;2023-04-01T06:46:44;2.50;;;1.30;;
9657;SDS011;4867;48.112;11.622;2023-04-01T06:55:47;2.83;;;1.40;;
9657;SDS011;4867;48.112;11.622;2023-04-01T07:01:16;2.90;;;1.10;;
9657;SDS011;4867;48.112;11.622;2023-04-01T07:04:00;3.03;;;1.30;;
9657;SDS011;4867;48.112;11.622;2023-04-01T07:06:50;2.33;;;1.33;;
9657;SDS011;4867;48.112;11.622;2023-04-01T07:09:48;3.30;;;0.97;;
9657;SDS011;4867;48.112;11.622;2023-04-01T07:15:24;2.33;;;1.00;;
9657;SDS011;4867;48.112;11.622;2023-04-01T07:17:55;2.00;;;0.97;;
9657;SDS011;4867;48.112;11.622;2023-04-01T07:20:31;2.73;;;1.40;;
9657;SDS011;4867;48.112;11.622;2023-04-01T07:23:03;1.40;;;1.20;;
9657;SDS011;4867;48.112;11.622;2023-04-01T07:26:22;1.53;;;1.10;;
9657;SDS011;4867;48.112;11.622;2023-04-01T07:29:19;1.50;;;1.07;;
9657;SDS011;4867;48.112;11.622;2023-04-01T07:34:45;3.07;;;1.80;;
9657;SDS011;4867;48.112;11.622;2023-04-01T07:43:26;1.93;;;1.23;;
9657;SDS011;4867;48.112;11.622;2023-04-01T07:54:40;2.00;;;1.37;;
9657;SDS011;4867;48.112;11.622;2023-04-01T07:57:23;1.30;;;0.93;;
9657;SDS011;4867;48.112;11.622;2023-04-01T08:00:04;1.43;;;0.90;;
9657;SDS011;4867;48.112;11.622;2023-04-01T08:03:12;1.73;;;0.90;;
9657;SDS011;4867;48.112;11.622;2023-04-01T08:05:57;3.87;;;1.13;;
9657;SDS011;4867;48.112;11.622;2023-04-01T08:25:40;1.30;;;0.90;;
9657;SDS011;4867;48.112;11.622;2023-04-01T08:33:53;1.83;;;0.80;;
9657;SDS011;4867;48.112;11.622;2023-04-01T08:36:28;1.80;;;1.37;;
9657;SDS011;4867;48.112;11.622;2023-04-01T08:39:11;1.00;;;0.90;;
9657;SDS011;4867;48.112;11.622;2023-04-01T08:41:53;1.30;;;0.90;;
9657;SDS011;4867;48.112;11.622;2023-04-01T08:54:14;0.73;;;0.73;;
9657;SDS011;4867;48.112;11.622;2023-04-01T08:56:55;0.80;;;0.80;;
9657;SDS011;4867;48.112;11.622;2023-04-01T09:00:03;5.53;;;3.97;;
9657;SDS011;4867;48.112;11.622;2023-04-01T09:20:29;2.93;;;1.07;;
9657;SDS011;4867;48.112;11.622;2023-04-01T09:37:57;1.03;;;0.60;;
9657;SDS011;4867;48.112;11.622;2023-04-01T09:40:55;2.50;;;1.10;;
9657;SDS011;4867;48.112;11.622;2023-04-01T09:44:03;1.03;;;0.93;;
9657;SDS011;4867;48.112;11.622;2023-04-01T09:52:46;1.60;;;1.30;;
9657;SDS011;4867;48.112;11.622;2023-04-01T09:55:46;1.60;;;1.00;;
9657;SDS011;4867;48.112;11.622;2023-04-01T10:04:30;0.80;;;0.80;;
9657;SDS011;4867;48.112;11.622;2023-04-01T10:16:00;1.03;;;0.70;;
9657;SDS011;4867;48.112;11.622;2023-04-01T10:18:50;1.13;;;0.90;;
9657;SDS011;4867;48.112;11.622;2023-04-01T10:41:40;2.47;;;0.90;;
9657;SDS011;4867;48.112;11.622;2023-04-01T10:53:34;1.30;;;1.20;;
9657;SDS011;4867;48.112;11.622;2023-04-01T11:17:32;2.53;;;1.63;;
9657;SDS011;4867;48.112;11.622;2023-04-01T11:20:25;0.80;;;0.80;;
9657;SDS011;4867;48.112;11.622;2023-04-01T11:29:22;0.90;;;0.60;;
9657;SDS011;4867;48.112;11.622;2023-04-01T11:32:02;0.70;;;0.70;;
9657;SDS011;4867;48.112;11.622;2023-04-01T11:52:52;0.90;;;0.90;;
9657;SDS011;4867;48.112;11.622;2023-04-01T11:58:11;1.70;;;1.60;;
9657;SDS011;4867;48.112;11.622;2023-04-01T12:04:10;1.43;;;1.33;;
9657;SDS011;4867;48.112;11.622;2023-04-01T12:06:48;1.10;;;1.00;;
9657;SDS011;4867;48.112;11.622;2023-04-01T12:09:25;1.87;;;1.50;;
9657;SDS011;4867;48.112;11.622;2023-04-01T12:34:52;0.80;;;0.80;;
9657;SDS011;4867;48.112;11.622;2023-04-01T12:48:46;1.17;;;1.00;;
9657;SDS011;4867;48.112;11.622;2023-04-01T12:54:45;0.70;;;0.70;;
9657;SDS011;4867;48.112;11.622;2023-04-01T13:00:27;0.80;;;0.80;;
9657;SDS011;4867;48.112;11.622;2023-04-01T13:11:25;1.20;;;1.10;;
9657;SDS011;4867;48.112;11.622;2023-04-01T13:16:58;1.23;;;1.00;;
9657;SDS011;4867;48.112;11.622;2023-04-01T13:22:35;1.53;;;1.20;;
9657;SDS011;4867;48.112;11.622;2023-04-01T13:25:24;3.47;;;2.47;;
9657;SDS011;4867;48.112;11.622;2023-04-01T13:28:21;1.33;;;1.20;;
9657;SDS011;4867;48.112;11.622;2023-04-01T13:33:44;1.00;;;1.00;;
9657;SDS011;4867;48.112;11.622;2023-04-01T13:36:28;0.97;;;0.87;;
9657;SDS011;4867;48.112;11.622;2023-04-01T13:39:05;1.40;;;1.23;;
9657;SDS011;4867;48.112;11.622;2023-04-01T13:44:31;0.93;;;0.80;;
9657;SDS011;4867;48.112;11.622;2023-04-01T14:08:55;1.40;;;1.30;;
9657;SDS011;4867;48.112;11.622;2023-04-01T14:14:36;1.10;;;1.00;;
9657;SDS011;4867;48.112;11.622;2023-04-01T14:47:56;3.10;;;2.90;;
9657;SDS011;4867;48.112;11.622;2023-04-01T14:50:28;1.03;;;0.93;;
9657;SDS011;4867;48.112;11.622;2023-04-01T14:55:54;1.30;;;1.10;;
9657;SDS011;4867;48.112;11.622;2023-04-01T14:58:40;8.13;;;7.53;;
9657;SDS011;4867;48.112;11.622;2023-04-01T15:04:02;0.90;;;0.90;;
9657;SDS011;4867;48.112;11.622;2023-04-01T15:09:06;1.83;;;1.50;;
9657;SDS011;4867;48.112;11.622;2023-04-01T15:11:57;2.47;;;1.53;;
9657;SDS011;4867;48.112;11.622;2023-04-01T15:15:00;0.90;;;0.90;;
9657;SDS011;4867;48.112;11.622;2023-04-01T15:20:31;0.80;;;0.80;;
9657;SDS011;4867;48.112;11.622;2023-04-01T15:28:34;1.50;;;1.40;;
9657;SDS011;4867;48.112;11.622;2023-04-01T15:36:44;1.63;;;1.40;;
9657;SDS011;4867;48.112;11.622;2023-04-01T15:39:37;1.27;;;0.90;;
9657;SDS011;4867;48.112;11.622;2023-04-01T15:44:52;1.80;;;1.33;;
9657;SDS011;4867;48.112;11.622;2023-04-01T15:47:41;1.37;;;1.00;;
9657;SDS011;4867;48.112;11.622;2023-04-01T15:55:57;1.10;;;1.00;;
9657;SDS011;4867;48.112;11.622;2023-04-01T16:04:57;0.93;;;0.80;;
9657;SDS011;4867;48.112;11.622;2023-04-01T16:16:19;3.40;;;3.10;;
9657;SDS011;4867;48.112;11.622;2023-04-01T16:21:45;0.87;;;0.83;;
9657;SDS011;4867;48.112;11.622;2023-04-01T16:27:07;9.63;;;8.70;;
9657;SDS011;4867;48.112;11.622;2023-04-01T16:32:50;1.20;;;1.00;;
9657;SDS011;4867;48.112;11.622;2023-04-01T16:38:11;7.33;;;5.70;;
9657;SDS011;4867;48.112;11.622;2023-04-01T16:40:49;2.97;;;2.77;;
9657;SDS011;4867;48.112;11.622;2023-04-01T16:43:20;1.50;;;1.40;;
9657;SDS011;4867;48.112;11.622;2023-04-01T16:56:54;1.13;;;0.90;;
9657;SDS011;4867;48.112;11.622;2023-04-01T17:02:04;1.10;;;1.00;;
9657;SDS011;4867;48.112;11.622;2023-04-01T17:04:47;1.10;;;1.00;;
9657;SDS011;4867;48.112;11.622;2023-04-01T17:07:21;1.73;;;1.00;;
9657;SDS011;4867;48.112;11.622;2023-04-01T17:10:13;1.10;;;1.00;;
9657;SDS011;4867;48.112;11.622;2023-04-01T17:12:48;2.10;;;1.90;;
9657;SDS011;4867;48.112;11.622;2023-04-01T17:15:38;1.00;;;0.90;;
9657;SDS011;4867;48.112;11.622;2023-04-01T17:18:14;1.10;;;1.00;;
9657;SDS011;4867;48.112;11.622;2023-04-01T17:29:15;0.80;;;0.80;;
9657;SDS011;4867;48.112;11.622;2023-04-01T17:35:12;2.10;;;1.90;;
9657;SDS011;4867;48.112;11.622;2023-04-01T17:43:40;1.67;;;1.20;;
9657;SDS011;4867;48.112;11.622;2023-04-01T17:49:01;1.43;;;1.20;;
9657;SDS011;4867;48.112;11.622;2023-04-01T17:54:50;1.20;;;1.10;;
9657;SDS011;4867;48.112;11.622;2023-04-01T18:00:13;1.43;;;1.20;;
9657;SDS011;4867;48.112;11.622;2023-04-01T18:02:57;1.67;;;1.57;;
9657;SDS011;4867;48.112;11.622;2023-04-01T18:17:04;2.87;;;1.20;;
9657;SDS011;4867;48.112;11.622;2023-04-01T18:22:59;2.03;;;1.43;;
9657;SDS011;4867;48.112;11.622;2023-04-01T18:25:41;2.10;;;1.47;;
9657;SDS011;4867;48.112;11.622;2023-04-01T18:30:53;5.77;;;5.27;;
9657;SDS011;4867;48.112;11.622;2023-04-01T18:33:26;2.43;;;1.87;;
9657;SDS011;4867;48.112;11.622;2023-04-01T18:36:15;1.63;;;1.40;;
9657;SDS011;4867;48.112;11.622;2023-04-01T18:57:40;1.63;;;1.53;;
9657;SDS011;4867;48.112;11.622;2023-04-01T19:00:21;8.73;;;7.87;;
9657;SDS011;4867;48.112;11.622;2023-04-01T19:02:58;6.23;;;4.93;;
9657;SDS011;4867;48.112;11.622;2023-04-01T19:05:34;28.97;;;26.37;;
9657;SDS011;4867;48.112;11.622;2023-04-01T19:11:20;21.77;;;19.77;;
9657;SDS011;4867;48.112;11.622;2023-04-01T19:14:02;9.27;;;8.37;;
9657;SDS011;4867;48.112;11.622;2023-04-01T19:16:48;21.93;;;19.93;;
9657;SDS011;4867;48.112;11.622;2023-04-01T19:22:13;9.30;;;8.43;;
9657;SDS011;4867;48.112;11.622;2023-04-01T19:24:58;11.30;;;10.30;;
9657;SDS011;4867;48.112;11.622;2023-04-01T19:28:16;23.63;;;21.43;;
9657;SDS011;4867;48.112;11.622;2023-04-01T19:33:38;4.70;;;4.30;;
9657;SDS011;4867;48.112;11.622;2023-04-01T19:36:12;5.80;;;5.20;;
9657;SDS011;4867;48.112;11.622;2023-04-01T19:39:23;14.30;;;12.87;;
9657;SDS011;4867;48.112;11.622;2023-04-01T19:42:03;8.93;;;7.87;;
9657;SDS011;4867;48.112;11.622;2023-04-01T19:50:06;6.13;;;5.53;;
9657;SDS011;4867;48.112;11.622;2023-04-01T19:52:37;13.07;;;11.77;;
9657;SDS011;4867;48.112;11.622;2023-04-01T19:57:59;8.33;;;7.47;;
9657;SDS011;4867;48.112;11.622;2023-04-01T20:00:47;2.13;;;1.93;;
9657;SDS011;4867;48.112;11.622;2023-04-01T20:03:33;4.43;;;3.57;;
9657;SDS011;4867;48.112;11.622;2023-04-01T20:12:11;2.70;;;1.97;;
9657;SDS011;4867;48.112;11.622;2023-04-01T20:14:51;5.70;;;5.17;;
9657;SDS011;4867;48.112;11.622;2023-04-01T20:17:22;9.60;;;8.73;;
9657;SDS011;4867;48.112;11.622;2023-04-01T20:44:04;1.77;;;1.30;;
9657;SDS011;4867;48.112;11.622;2023-04-01T21:00:40;1.10;;;1.00;;
9657;SDS011;4867;48.112;11.622;2023-04-01T21:03:16;1.50;;;1.23;;
9657;SDS011;4867;48.112;11.622;2023-04-01T21:11:16;1.30;;;1.10;;
9657;SDS011;4867;48.112;11.622;2023-04-01T21:13:58;1.20;;;1.00;;
9657;SDS011;4867;48.112;11.622;2023-04-01T21:30:23;1.37;;;1.10;;
9657;SDS011;4867;48.112;11.622;2023-04-01T21:33:21;1.53;;;1.10;;
9657;SDS011;4867;48.112;11.622;2023-04-01T21:39:05;1.77;;;1.10;;
9657;SDS011;4867;48.112;11.622;2023-04-01T21:50:41;1.40;;;1.10;;
9657;SDS011;4867;48.112;11.622;2023-04-01T22:07:13;1.20;;;1.00;;
9657;SDS011;4867;48.112;11.622;2023-04-01T22:09:59;1.03;;;0.90;;
9657;SDS011;4867;48.112;11.622;2023-04-01T22:12:51;1.63;;;1.20;;
9657;SDS011;4867;48.112;11.622;2023-04-01T22:15:49;1.13;;;1.03;;
9657;SDS011;4867;48.112;11.622;2023-04-01T22:18:32;1.03;;;1.00;;
9657;SDS011;4867;48.112;11.622;2023-04-01T22:21:08;2.13;;;1.10;;
9657;SDS011;4867;48.112;11.622;2023-04-01T22:26:40;1.50;;;1.07;;
9657;SDS011;4867;48.112;11.622;2023-04-01T22:34:54;1.20;;;1.00;;
9657;SDS011;4867;48.112;11.622;2023-04-01T22:40:35;1.03;;;1.00;;
9657;SDS011;4867;48.112;11.622;2023-04-01T22:43:29;1.63;;;1.23;;
9657;SDS011;4867;48.112;11.622;2023-04-01T22:48:46;1.10;;;1.00;;
9657;SDS011;4867;48.112;11.622;2023-04-01T22:54:13;1.67;;;1.57;;
9657;SDS011;4867;48.112;11.622;2023-04-01T22:56:53;1.10;;;0.97;;
9657;SDS011;4867;48.112;11.622;2023-04-01T23:02:29;1.27;;;0.90;;
9657;SDS011;4867;48.112;11.622;2023-04-01T23:05:00;1.23;;;1.00;;
9657;SDS011;4867;48.112;11.622;2023-04-01T23:10:45;1.47;;;1.00;;
9657;SDS011;4867;48.112;11.622;2023-04-01T23:13:20;1.70;;;1.00;;
9657;SDS011;4867;48.112;11.622;2023-04-01T23:15:53;1.03;;;0.90;;
9657;SDS011;4867;48.112;11.622;2023-04-01T23:18:34;1.07;;;0.97;;
9657;SDS011;4867;48.112;11.622;2023-04-01T23:21:19;1.53;;;1.10;;
9657;SDS011;4867;48.112;11.622;2023-04-01T23:23:56;2.00;;;0.90;;
9657;SDS011;4867;48.112;11.622;2023-04-01T23:29:34;1.37;;;0.80;;
9657;SDS011;4867;48.112;11.622;2023-04-01T23:32:03;2.10;;;1.30;;
9657;SDS011;4867;48.112;11.622;2023-04-01T23:34:32;1.10;;;1.00;;
9657;SDS011;4867;48.112;11.622;2023-04-01T23:37:02;1.97;;;1.30;;
9657;SDS011;4867;48.112;11.622;2023-04-01T23:39:33;1.00;;;0.90;;
9657;SDS011;4867;48.112;11.622;2023-04-01T23:44:55;2.00;;;1.60;;
9657;SDS011;4867;48.112;11.622;2023-04-01T23:47:25;1.67;;;1.00;;
9657;SDS011;4867;48.112;11.622;2023-04-01T23:49:58;2.23;;;1.03;;
9657;SDS011;4867;48.112;11.622;2023-04-01T23:52:31;1.77;;;1.50;;
9657;SDS011;4867;48.112;11.622;2023-04-01T23:55:08;2.00;;;1.50;;
9657;SDS011;4867;48.112;11.622;2023-04-01T23:57:40;2.37;;;1.20;;
